• Join FlightAware (Why Join?)
  • Login
  • US Flag 
 
04:42AM EST


 

Airport Tracker/Info


-or-


 

Live Flight TrackerFlight Track Log ✈ FIN666 ✈ 24-Jun-2014 ✈ EKCH / CPH - EFHK / HEL

Flight Track Log - Related Links

Times and Time Zones

All times are in EDT time to prevent confusion due to time zone crossing. See the FIN666 flight status page for this flight to view local times or setup timezone preferences in your user account.

Time Position Orientation Groundspeed Altitude Reporting Facility
EDT Latitude Longitude Course Direction KTS MPH feet Rate Location/Type
07:34AM 55.8966 13.2332 49° Northeast  Level Estimated
07:35AM 55.9658 13.3788 50° Northeast  Level Estimated
07:36AM 56.0349 13.5249 50° Northeast  Level Estimated
07:37AM 56.1076 13.6798 50° Northeast  Level Estimated
07:38AM 56.1802 13.8353 50° Northeast  Level Estimated
07:39AM 56.2526 13.9914 50° Northeast  Level Estimated
07:40AM 56.3248 14.1481 50° Northeast  Level Estimated
07:41AM 56.3967 14.3054 50° Northeast  Level Estimated
07:42AM 56.4685 14.4633 51° Northeast  Level Estimated
07:43AM 56.5401 14.6217 51° Northeast  Level Estimated
07:44AM 56.6115 14.7808 51° Northeast  Level Estimated
07:45AM 56.6827 14.9405 51° Northeast  Level Estimated
07:46AM 56.7536 15.1008 51° Northeast  Level Estimated
07:47AM 56.8244 15.2617 51° Northeast  Level Estimated
07:48AM 56.8949 15.4231 51° Northeast  Level Estimated
07:49AM 56.9653 15.5852 51° Northeast  Level Estimated
07:50AM 57.0354 15.7480 52° Northeast  Level Estimated
07:51AM 57.1053 15.9113 52° Northeast  Level Estimated
07:52AM 57.1750 16.0752 52° Northeast  Level Estimated
07:53AM 57.2445 16.2398 52° Northeast  Level Estimated
07:54AM 57.3138 16.4050 52° Northeast  Level Estimated
07:55AM 57.3829 16.5708 52° Northeast  Level Estimated
07:56AM 57.4517 16.7372 52° Northeast  Level Estimated
07:57AM 57.5204 16.9043 53° Northeast  Level Estimated
07:58AM 57.5887 17.0720 53° Northeast  Level Estimated
07:59AM 57.6569 17.2403 53° Northeast  Level Estimated
08:00AM 57.7249 17.4092 53° Northeast  Level Estimated
08:01AM 57.7926 17.5788 53° Northeast  Level Estimated
08:02AM 57.8601 17.7490 53° Northeast  Level Estimated
08:03AM 57.9274 17.9199 53° Northeast  Level Estimated
08:04AM 57.9944 18.0914 54° Northeast  Level Estimated
08:05AM 58.0612 18.2635 54° Northeast  Level Estimated
08:06AM 58.1278 18.4363 54° Northeast  Level Estimated
08:07AM 58.1942 18.6098 54° Northeast  Level Estimated
08:08AM 58.2603 18.7838 54° Northeast  Level Estimated
08:09AM 58.3261 18.9586 54° Northeast  Level Estimated
08:10AM 58.3918 19.1339 54° Northeast  Level Estimated
08:11AM 58.4572 19.3100 55° Northeast  Level Estimated
08:12AM 58.5223 19.4867 55° Northeast  Level Estimated
08:13AM 58.5872 19.6640 55° Northeast  Level Estimated
08:14AM 58.6519 19.8420 55° Northeast  Level Estimated
08:15AM 58.7163 20.0207 55° Northeast  Level Estimated
08:16AM 58.7805 20.2000 55° Northeast  Level Estimated
08:17AM 58.8444 20.3800 55° Northeast  Level Estimated
08:18AM 58.9081 20.5606 56° Northeast  Level Estimated
08:19AM 58.9773 20.7587 56° Northeast  Level Estimated
08:20AM 59.0462 20.9576 56° Northeast  Level Estimated
08:21AM 59.1149 21.1573 56° Northeast  Level Estimated
08:22AM 59.1832 21.3577 56° Northeast  Level Estimated
08:23AM 59.2513 21.5590 56° Northeast  Level Estimated
08:24AM 59.3190 21.7611 57° Northeast  Level Estimated
08:25AM 59.3864 21.9640 57° Northeast  Level Estimated
08:26AM 59.4534 22.1677 57° Northeast  Level Estimated
08:27AM 59.5202 22.3722 57° Northeast  Level Estimated
08:28AM 59.5867 22.5775 57° Northeast  Level Estimated
08:29AM 59.6528 22.7836 58° Northeast  Level Estimated
08:30AM 59.7186 22.9906 58° Northeast  Level Estimated
08:31AM 59.7840 23.1983 58° Northeast  Level Estimated
08:32AM 59.8492 23.4069 58° Northeast  Level Estimated
08:33AM 59.9140 23.6163 58° Northeast  Level Estimated
08:34AM 59.9785 23.8265 58° Northeast  Level Estimated
08:35AM 60.0426 24.0375 59° Northeast  Level Estimated
08:36AM 60.1064 24.2493 59° Northeast  Level Estimated
08:37AM 60.1699 24.4620 59° Northeast  Level Estimated
08:38AM 60.2330 24.6754 59° Northeast  Level Estimated
08:39AM 60.2958 24.8897 59° Northeast  Level Estimated
08:40AM 60.3172 24.9633 60° Northeast  Level Estimated
08:41AM 60.3172 24.9633 North  Level Estimated
08:42AM 60.3172 24.9633 North  Level Estimated
08:43AM 60.3172 24.9633 North  Level Estimated
08:44AM 60.3172 24.9633 North  Level Estimated
08:45AM 60.3172 24.9633 North  Level Estimated
08:46AM 60.3172 24.9633 North  Level Estimated
08:47AM 60.3172 24.9633 North  Level Estimated
08:48AM 60.3172 24.9633 North  Level Estimated
08:49AM 60.3172 24.9633 North  Level Estimated